Time;durP1;ratioP1;P1;durP2;ratioP2;P2;SDS_P1;SDS_P2;PMS_P1;PMS_P2;Temp;Humidity;BMP_temperature;BMP_pressure;BME280_temperature;BME280_humidity;BME280_pressure;Samples;Min_cycle;Max_cycle;Signal;HPM_P1;HPM_P2
2022/07/29 00:00:46;;;;;;;;;6.50;4.50;;;;;23.32;33.81;100878.72;4880370;29;45385;-62
2022/07/29 00:03:12;;;;;;;;;8.25;7.00;;;;;23.54;33.34;100906.22;4880743;29;45506;-62
2022/07/29 00:05:41;;;;;;;;;6.75;6.00;;;;;23.48;33.49;100908.22;4863470;29;45945;-62
2022/07/29 00:08:07;;;;;;;;;4.80;4.80;;;;;23.26;34.03;100881.53;4880733;29;45802;-62
2022/07/29 00:10:32;;;;;;;;;6.20;6.00;;;;;23.40;33.85;100892.06;4863496;29;45440;-61
2022/07/29 00:12:58;;;;;;;;;4.25;4.25;;;;;23.34;34.07;100894.09;4863965;29;45833;-61
2022/07/29 00:15:23;;;;;;;;;4.75;4.00;;;;;23.39;33.91;100891.25;4847674;29;47810;-62
2022/07/29 00:17:49;;;;;;;;;8.75;5.25;;;;;23.38;34.41;100874.72;4880435;29;45255;-61
2022/07/29 00:20:14;;;;;;;;;6.25;5.00;;;;;23.44;33.87;100879.16;4863676;29;45219;-61
2022/07/29 00:22:40;;;;;;;;;5.25;4.00;;;;;23.26;33.92;100872.31;4863696;29;45328;-61
2022/07/29 00:25:06;;;;;;;;;5.00;5.00;;;;;23.34;34.02;100880.09;4880213;29;45671;-61
2022/07/29 00:27:32;;;;;;;;;6.80;6.80;;;;;23.29;34.19;100869.75;4858343;29;45345;-62
2022/07/29 00:29:57;;;;;;;;;7.50;6.25;;;;;23.23;34.07;100854.13;4857465;29;45427;-61
2022/07/29 00:32:23;;;;;;;;;5.00;5.00;;;;;23.40;34.31;100881.72;4870946;29;45152;-61
2022/07/29 00:37:32;;;;;;;;;5.60;5.60;;;;;23.41;34.26;100866.56;4871891;29;45363;-61
2022/07/29 00:39:57;;;;;;;;;5.00;5.00;;;;;23.42;34.32;100862.63;4886471;29;45425;-61
2022/07/29 00:42:23;;;;;;;;;4.25;4.25;;;;;23.47;33.99;100863.72;4870075;29;45304;-62
2022/07/29 00:44:49;;;;;;;;;6.00;6.00;;;;;23.42;34.16;100871.03;4869413;29;45480;-61
2022/07/29 00:47:14;;;;;;;;;5.00;5.00;;;;;23.38;34.23;100866.34;4886522;29;45600;-61
2022/07/29 00:49:40;;;;;;;;;5.75;5.75;;;;;23.39;34.39;100874.44;4886486;29;45328;-60
2022/07/29 00:52:06;;;;;;;;;7.20;7.20;;;;;23.40;34.48;100864.91;4886204;29;45701;-62
2022/07/29 00:54:32;;;;;;;;;6.25;4.50;;;;;23.36;34.18;100875.03;4868861;29;46194;-61
2022/07/29 00:56:58;;;;;;;;;7.40;5.60;;;;;23.35;34.13;100869.72;4853825;29;45466;-62
2022/07/29 00:59:24;;;;;;;;;7.00;6.00;;;;;23.39;34.13;100863.25;4869427;29;45551;-63
2022/07/29 01:01:49;;;;;;;;;9.00;9.00;;;;;23.40;34.37;100859.31;4853773;29;45429;-61
2022/07/29 01:04:15;;;;;;;;;6.00;4.00;;;;;23.39;34.66;100859.59;4885791;29;45685;-61
2022/07/29 01:06:41;;;;;;;;;5.00;5.00;;;;;23.31;34.92;100857.44;4885864;29;45173;-61
2022/07/29 01:09:06;;;;;;;;;5.60;3.40;;;;;23.25;34.78;100846.25;4869379;29;45359;-61
2022/07/29 01:11:32;;;;;;;;;9.00;7.00;;;;;23.33;34.39;100856.03;4869287;29;45651;-61
2022/07/29 01:13:57;;;;;;;;;5.25;5.00;;;;;23.22;34.94;100837.63;4885801;29;45806;-61
2022/07/29 01:16:35;;;;;;;;;5.00;5.00;;;;;23.35;34.72;100858.50;4885600;29;45353;-60
2022/07/29 01:19:21;;;;;;;;;8.00;5.60;;;;;23.24;34.86;100841.81;4854291;29;45459;-60
2022/07/29 01:21:57;;;;;;;;;5.60;4.00;;;;;23.36;34.56;100863.81;4861823;29;46017;-60
2022/07/29 01:24:51;;;;;;;;;5.00;5.00;;;;;23.34;34.47;100862.44;4849796;29;45853;-61
2022/07/29 01:27:38;;;;;;;;;4.00;4.00;;;;;23.31;34.80;100866.66;4867282;29;45400;-61
2022/07/29 01:30:03;;;;;;;;;5.60;3.60;;;;;23.08;35.06;100834.66;4866757;29;45469;-60
2022/07/29 01:32:31;;;;;;;;;4.25;4.00;;;;;23.32;34.59;100871.13;4835186;29;45472;-62
2022/07/29 01:35:15;;;;;;;;;4.60;4.00;;;;;23.25;34.87;100876.22;4834959;29;45356;-61
2022/07/29 01:38:01;;;;;;;;;4.80;4.80;;;;;23.06;34.87;100854.56;4866821;29;45447;-60
2022/07/29 01:40:33;;;;;;;;;5.20;4.20;;;;;23.24;34.67;100875.41;4866117;29;45299;-60
2022/07/29 01:42:59;;;;;;;;;4.00;4.00;;;;;23.26;34.91;100870.31;4862563;29;45472;-61
2022/07/29 01:45:40;;;;;;;;;5.00;4.00;;;;;23.26;34.65;100875.09;4846813;29;45646;-62
2022/07/29 01:48:07;;;;;;;;;7.00;6.00;;;;;23.28;34.90;100878.44;4831816;29;45317;-61
2022/07/29 01:50:35;;;;;;;;;4.20;4.20;;;;;23.19;34.77;100867.03;4846959;29;45537;-61
2022/07/29 01:53:02;;;;;;;;;3.80;3.80;;;;;23.20;35.23;100879.91;4831964;29;45518;-62
2022/07/29 01:55:36;;;;;;;;;5.40;5.20;;;;;22.98;35.21;100852.38;4831848;29;45574;-60
2022/07/29 01:58:03;;;;;;;;;4.40;4.40;;;;;23.15;34.80;100879.94;4863777;29;45391;-61
2022/07/29 02:00:28;;;;;;;;;4.00;4.00;;;;;23.21;35.13;100883.53;4846952;29;45704;-62
2022/07/29 02:02:54;;;;;;;;;4.25;4.25;;;;;23.11;35.68;100876.91;4811947;29;45609;-61
2022/07/29 02:05:21;;;;;;;;;5.25;5.25;;;;;23.01;35.36;100861.03;4831007;29;46407;-61
2022/07/29 02:07:47;;;;;;;;;5.00;5.00;;;;;22.95;35.38;100869.78;4846520;29;45557;-62
2022/07/29 02:10:13;;;;;;;;;6.00;5.00;;;;;22.72;35.96;100856.25;4847039;29;45902;-61
2022/07/29 02:12:38;;;;;;;;;4.00;4.00;;;;;22.81;35.74;100867.66;4846780;29;45880;-61
2022/07/29 02:15:05;;;;;;;;;7.00;6.00;;;;;22.78;35.96;100879.41;4846122;29;46403;-61
2022/07/29 02:17:38;;;;;;;;;4.40;4.40;;;;;22.70;35.90;100857.66;4846172;29;45658;-61
2022/07/29 02:20:04;;;;;;;;;9.60;8.80;;;;;22.93;35.70;100870.06;4861974;29;45333;-61
2022/07/29 02:22:31;;;;;;;;;7.60;7.60;;;;;22.96;35.40;100874.25;4867027;29;45221;-61
2022/07/29 02:24:57;;;;;;;;;6.60;6.60;;;;;22.98;35.59;100874.78;4865071;29;45361;-62
2022/07/29 02:27:22;;;;;;;;;5.40;5.40;;;;;22.99;36.06;100866.09;4849214;29;45373;-61
2022/07/29 02:29:48;;;;;;;;;5.00;5.00;;;;;23.02;35.28;100878.66;4864852;29;45370;-61
2022/07/29 02:32:13;;;;;;;;;3.25;3.25;;;;;23.04;35.43;100873.59;4849629;29;45566;-61
2022/07/29 02:34:39;;;;;;;;;5.00;4.75;;;;;23.06;35.57;100882.56;4849203;29;45944;-61
2022/07/29 02:37:04;;;;;;;;;7.00;6.50;;;;;23.06;35.65;100879.78;4849046;29;45429;-60
2022/07/29 02:39:30;;;;;;;;;5.00;5.00;;;;;23.06;35.51;100876.97;4864503;29;45284;-60
2022/07/29 02:41:59;;;;;;;;;10.50;10.50;;;;;23.09;35.66;100876.38;4864796;29;45474;-61
2022/07/29 02:44:25;;;;;;;;;11.00;9.40;;;;;23.10;35.46;100882.81;4849365;29;45526;-60
2022/07/29 02:47:11;;;;;;;;;5.00;5.00;;;;;23.07;35.37;100881.44;4864608;29;45371;-61
2022/07/29 02:49:38;;;;;;;;;5.00;5.00;;;;;23.05;35.56;100880.88;4866809;29;45374;-60
2022/07/29 02:52:09;;;;;;;;;6.20;6.20;;;;;22.98;35.59;100870.03;4848871;29;45596;-60
2022/07/29 02:55:07;;;;;;;;;5.20;5.20;;;;;23.00;35.95;100880.94;4864081;29;46535;-60
2022/07/29 02:57:56;;;;;;;;;5.00;4.80;;;;;22.96;36.19;100874.25;4864209;29;45375;-61
2022/07/29 03:00:23;;;;;;;;;4.60;4.60;;;;;22.86;36.51;100887.22;4870964;29;45347;-60
2022/07/29 03:02:51;;;;;;;;;8.40;7.00;;;;;22.87;36.54;100879.63;4849148;29;45521;-59
2022/07/29 03:05:18;;;;;;;;;5.40;5.40;;;;;22.73;36.39;100857.91;4848775;29;47600;-60
2022/07/29 03:08:01;;;;;;;;;6.00;5.20;;;;;22.90;36.66;100889.41;4848615;29;45282;-60
2022/07/29 03:10:26;;;;;;;;;9.00;7.80;;;;;22.75;36.99;100864.03;4881433;29;45375;-58
2022/07/29 03:12:52;;;;;;;;;8.25;7.75;;;;;22.81;37.01;100881.66;4848802;29;45399;-59
2022/07/29 03:15:18;;;;;;;;;8.00;8.00;;;;;22.69;37.44;100868.00;4840307;29;46030;-60
2022/07/29 03:17:43;;;;;;;;;7.40;7.00;;;;;22.68;37.56;100882.31;4858229;29;45195;-60
2022/07/29 03:20:09;;;;;;;;;6.00;5.00;;;;;22.72;37.90;100895.41;4864282;29;45267;-60
2022/07/29 03:22:48;;;;;;;;;9.00;7.40;;;;;22.71;38.05;100892.91;4848710;29;45644;-60
2022/07/29 03:25:15;;;;;;;;;7.80;6.80;;;;;22.65;38.19;100892.09;4864944;29;46475;-60
2022/07/29 03:27:40;;;;;;;;;8.80;7.00;;;;;22.67;38.46;100903.00;4863888;29;45402;-60
2022/07/29 03:30:06;;;;;;;;;5.25;5.25;;;;;22.63;38.36;100896.31;4880821;29;45390;-59
2022/07/29 03:32:32;;;;;;;;;7.20;7.20;;;;;22.57;38.65;100892.72;4864007;29;45391;-60
2022/07/29 03:34:57;;;;;;;;;6.50;6.50;;;;;22.54;38.67;100893.28;4863668;29;46486;-60
2022/07/29 03:37:23;;;;;;;;;11.00;8.75;;;;;22.52;38.63;100899.16;4880499;29;45376;-60
2022/07/29 03:39:48;;;;;;;;;7.00;7.00;;;;;22.50;39.03;100887.41;4880714;29;45196;-60
2022/07/29 03:42:14;;;;;;;;;12.00;8.50;;;;;22.39;39.04;100878.25;4848597;29;45636;-59
2022/07/29 03:44:41;;;;;;;;;13.20;9.00;;;;;22.36;39.09;100875.22;4848325;29;46821;-59
2022/07/29 03:47:07;;;;;;;;;8.00;7.20;;;;;22.47;39.16;100893.59;4848463;29;45428;-60
2022/07/29 03:49:32;;;;;;;;;7.00;5.25;;;;;22.47;39.36;100900.00;4848426;29;45477;-60
2022/07/29 03:51:58;;;;;;;;;9.50;7.50;;;;;22.43;39.50;100895.28;4863766;29;45420;-58
2022/07/29 03:54:23;;;;;;;;;8.75;8.75;;;;;22.32;39.52;100906.53;4863188;29;46171;-59
2022/07/29 03:56:50;;;;;;;;;6.25;6.25;;;;;22.37;39.19;100907.63;4880574;29;45766;-59
2022/07/29 03:59:15;;;;;;;;;8.00;8.00;;;;;22.36;39.35;100901.19;4848476;29;45389;-59
2022/07/29 04:01:41;;;;;;;;;5.25;5.25;;;;;22.34;39.33;100900.66;4847997;29;45474;-60
2022/07/29 04:04:06;;;;;;;;;7.50;6.50;;;;;22.19;39.13;100877.25;4847461;29;45782;-60
2022/07/29 04:06:41;;;;;;;;;9.25;7.00;;;;;22.34;39.19;100909.03;4863286;29;45534;-60
2022/07/29 04:09:07;;;;;;;;;6.20;6.20;;;;;22.32;39.40;100908.50;4880806;29;45309;-60
2022/07/29 04:11:33;;;;;;;;;8.75;8.00;;;;;22.21;39.33;100902.13;4863965;29;45543;-59
2022/07/29 04:13:58;;;;;;;;;10.25;8.25;;;;;22.29;39.35;100914.66;4880382;29;46041;-61
2022/07/29 04:16:23;;;;;;;;;9.75;8.75;;;;;22.22;39.42;100912.19;4880412;29;45157;-59
2022/07/29 04:18:49;;;;;;;;;7.25;6.00;;;;;22.06;39.38;100895.50;4863602;29;45230;-60
2022/07/29 04:21:14;;;;;;;;;6.50;6.50;;;;;22.24;39.71;100911.91;4880747;29;45589;-59
2022/07/29 04:23:40;;;;;;;;;8.75;8.75;;;;;22.24;39.32;100912.72;4879919;29;45510;-61
2022/07/29 04:26:09;;;;;;;;;7.60;7.60;;;;;22.26;39.31;100913.28;4863786;29;45412;-59
2022/07/29 04:28:35;;;;;;;;;8.00;8.00;;;;;22.25;39.20;100908.78;4880247;29;45400;-59
2022/07/29 04:31:00;;;;;;;;;7.75;6.75;;;;;22.28;39.05;100912.97;4863752;29;46057;-59
2022/07/29 04:33:26;;;;;;;;;8.00;6.75;;;;;22.26;39.07;100904.06;4856097;28;45521;-58
2022/07/29 04:35:51;;;;;;;;;8.50;7.00;;;;;22.27;38.90;100916.91;4860779;29;45407;-60
2022/07/29 04:38:16;;;;;;;;;6.75;6.75;;;;;22.29;38.97;100926.69;4861375;29;45414;-60
2022/07/29 04:40:42;;;;;;;;;7.75;7.00;;;;;22.22;39.21;100920.56;4862607;29;45459;-60
2022/07/29 04:43:07;;;;;;;;;6.50;6.50;;;;;22.20;38.97;100923.63;4862124;29;45988;-58
2022/07/29 04:45:33;;;;;;;;;5.50;5.50;;;;;22.24;39.13;100929.50;4862200;29;45391;-61
2022/07/29 04:47:58;;;;;;;;;8.00;7.50;;;;;22.09;39.03;100907.22;4878804;29;45387;-61
2022/07/29 04:50:24;;;;;;;;;8.00;6.75;;;;;22.26;39.07;100927.28;4863487;29;45378;-59
2022/07/29 04:52:49;;;;;;;;;8.00;7.25;;;;;22.33;38.71;100935.31;4856917;29;46614;-60
2022/07/29 04:55:15;;;;;;;;;7.00;7.00;;;;;22.33;38.95;100927.78;4878516;29;45698;-60
2022/07/29 04:57:40;;;;;;;;;6.75;5.50;;;;;22.37;38.62;100925.25;4879824;29;45507;-59
2022/07/29 05:00:06;;;;;;;;;7.50;7.00;;;;;22.25;38.78;100899.59;4879098;29;45379;-61
2022/07/29 05:02:32;;;;;;;;;8.60;8.60;;;;;22.42;38.27;100928.00;4879534;29;47813;-59
2022/07/29 05:04:57;;;;;;;;;6.50;6.50;;;;;22.18;38.48;100878.38;4878493;29;45782;-59
2022/07/29 05:07:23;;;;;;;;;9.75;8.00;;;;;22.49;38.47;100924.91;4862503;29;45400;-60
2022/07/29 05:09:48;;;;;;;;;5.75;5.50;;;;;22.53;38.52;100922.38;4880261;29;45280;-59
2022/07/29 05:12:14;;;;;;;;;8.75;8.50;;;;;22.56;38.34;100924.59;4880048;29;45461;-60
2022/07/29 05:14:39;;;;;;;;;7.00;6.75;;;;;22.55;38.35;100920.97;4862773;29;45420;-59
2022/07/29 05:17:05;;;;;;;;;7.50;7.50;;;;;22.57;38.18;100927.13;4882087;29;45862;-60
2022/07/29 05:19:31;;;;;;;;;5.00;5.00;;;;;22.60;37.94;100929.34;4883489;29;45632;-59
2022/07/29 05:21:57;;;;;;;;;7.20;7.20;;;;;22.70;37.94;100934.03;4883014;29;46917;-58
2022/07/29 05:24:22;;;;;;;;;7.50;5.50;;;;;22.66;37.76;100929.28;4866193;29;45292;-60
2022/07/29 05:26:47;;;;;;;;;7.25;5.00;;;;;22.67;37.75;100922.59;4866445;29;45308;-61
2022/07/29 05:29:13;;;;;;;;;9.50;7.00;;;;;22.63;37.82;100929.88;4866389;29;45553;-61
2022/07/29 05:31:38;;;;;;;;;6.00;6.00;;;;;22.52;37.65;100910.34;4882799;29;45538;-60
2022/07/29 05:34:04;;;;;;;;;5.75;5.75;;;;;22.67;37.70;100931.81;4882785;29;45390;-60
2022/07/29 05:36:29;;;;;;;;;7.00;5.50;;;;;22.67;37.51;100931.81;4883593;29;45294;-60
2022/07/29 05:38:55;;;;;;;;;7.00;7.00;;;;;22.63;37.93;100924.28;4883138;29;45520;-59
2022/07/29 05:41:20;;;;;;;;;8.25;7.50;;;;;22.69;37.36;100942.72;4882704;29;46437;-59
2022/07/29 05:43:46;;;;;;;;;7.25;7.25;;;;;22.57;37.63;100910.31;4865892;29;45575;-60
2022/07/29 05:46:12;;;;;;;;;5.00;5.00;;;;;22.54;37.41;100910.06;4866411;29;45669;-58
2022/07/29 05:48:38;;;;;;;;;8.00;6.25;;;;;22.72;37.62;100930.94;4883103;29;45374;-59
2022/07/29 05:51:04;;;;;;;;;6.00;6.00;;;;;22.74;37.67;100937.91;4882725;29;46887;-59
2022/07/29 05:53:30;;;;;;;;;8.80;6.60;;;;;22.75;37.71;100944.34;4882840;29;45769;-59
2022/07/29 05:55:55;;;;;;;;;7.00;6.00;;;;;22.78;37.65;100942.94;4882816;29;45369;-60
2022/07/29 05:58:21;;;;;;;;;6.25;6.25;;;;;22.78;37.74;100945.75;4882892;29;45392;-60
2022/07/29 06:00:46;;;;;;;;;11.75;7.50;;;;;22.84;37.68;100951.00;4882486;29;45893;-59
2022/07/29 06:03:12;;;;;;;;;7.75;6.25;;;;;22.68;38.11;100927.06;4882605;29;45268;-60
2022/07/29 06:05:37;;;;;;;;;6.00;6.00;;;;;22.87;37.63;100949.56;4882756;29;45260;-60
2022/07/29 06:08:05;;;;;;;;;6.25;5.50;;;;;22.90;37.45;100960.22;4882378;29;45321;-59
2022/07/29 06:10:30;;;;;;;;;7.00;7.00;;;;;22.94;37.65;100958.47;4865935;29;46611;-60
2022/07/29 06:12:56;;;;;;;;;6.00;6.00;;;;;22.96;37.52;100964.66;4882315;29;45362;-60
2022/07/29 06:15:21;;;;;;;;;5.25;5.25;;;;;22.88;37.71;100949.28;4865500;29;45369;-57
2022/07/29 06:17:48;;;;;;;;;8.00;7.75;;;;;22.92;37.88;100960.75;4882990;29;45269;-60
2022/07/29 06:20:13;;;;;;;;;4.40;3.80;;;;;23.00;37.74;100970.50;4865208;29;47914;-60
2022/07/29 06:22:38;;;;;;;;;6.00;6.00;;;;;23.02;37.67;100966.25;4865390;29;45302;-59
2022/07/29 06:25:04;;;;;;;;;9.00;7.00;;;;;23.02;37.99;100966.25;4882597;29;45319;-58
2022/07/29 06:27:30;;;;;;;;;6.00;6.00;;;;;22.92;38.08;100945.91;4849783;29;45449;-60
2022/07/29 06:29:56;;;;;;;;;5.75;5.75;;;;;23.03;37.83;100964.31;4865028;29;45997;-59
2022/07/29 06:32:22;;;;;;;;;8.25;8.25;;;;;23.00;38.02;100959.31;4865249;29;45707;-61
2022/07/29 06:34:47;;;;;;;;;6.25;6.25;;;;;23.04;38.16;100968.75;4865521;29;45203;-60
2022/07/29 06:37:13;;;;;;;;;7.00;7.00;;;;;22.93;37.85;100956.00;4865727;29;45473;-61
2022/07/29 06:39:38;;;;;;;;;6.75;6.50;;;;;23.05;38.00;100973.22;4881752;29;45407;-59
2022/07/29 06:42:04;;;;;;;;;10.50;9.75;;;;;23.05;38.15;100980.81;4882003;29;45190;-60
2022/07/29 06:44:30;;;;;;;;;8.00;8.00;;;;;22.85;38.38;100949.03;4865225;29;45371;-59
2022/07/29 06:46:56;;;;;;;;;7.00;7.00;;;;;22.93;38.35;100956.00;4865823;29;45475;-60
2022/07/29 06:49:23;;;;;;;;;8.00;7.25;;;;;23.13;38.58;100983.81;4881702;29;46528;-59
2022/07/29 06:51:48;;;;;;;;;7.60;7.00;;;;;23.00;38.74;100984.50;4881823;29;45353;-58
2022/07/29 06:54:14;;;;;;;;;7.50;7.50;;;;;23.05;38.36;100981.63;4881997;29;45831;-59
2022/07/29 06:56:41;;;;;;;;;9.75;9.25;;;;;23.00;38.46;100987.28;4881807;29;45383;-59
2022/07/29 06:59:10;;;;;;;;;5.00;5.00;;;;;22.79;38.80;100987.38;4881647;29;46327;-60
2022/07/29 07:01:36;;;;;;;;;6.80;6.20;;;;;22.83;38.67;100974.50;4864831;29;45432;-58
2022/07/29 07:04:02;;;;;;;;;10.40;7.80;;;;;22.87;38.71;100986.81;4814894;29;46236;-60
2022/07/29 07:06:28;;;;;;;;;6.25;6.00;;;;;22.90;38.48;100990.13;4881899;29;45311;-59
2022/07/29 07:08:53;;;;;;;;;10.75;8.25;;;;;22.94;38.77;100991.25;4881137;29;46021;-60
2022/07/29 07:11:19;;;;;;;;;8.75;8.75;;;;;22.92;38.35;100991.53;4881378;29;45387;-61
2022/07/29 07:13:44;;;;;;;;;11.00;7.75;;;;;22.91;38.43;100991.81;4881417;29;45293;-62
2022/07/29 07:16:09;;;;;;;;;8.50;7.25;;;;;22.88;38.33;100998.81;4881666;29;45327;-62
2022/07/29 07:18:35;;;;;;;;;6.50;6.50;;;;;22.93;38.25;100998.78;4880997;29;45536;-63
2022/07/29 07:21:00;;;;;;;;;6.75;6.50;;;;;22.88;38.25;100996.88;4881143;29;45344;-62
2022/07/29 07:23:26;;;;;;;;;10.25;9.00;;;;;22.95;38.30;100995.72;4881361;29;45317;-62
2022/07/29 07:25:52;;;;;;;;;9.25;7.50;;;;;23.02;38.38;100999.84;4864685;29;45618;-62
2022/07/29 07:28:18;;;;;;;;;6.00;6.00;;;;;23.00;38.02;100992.88;4880850;29;45980;-62
2022/07/29 07:30:44;;;;;;;;;5.60;5.60;;;;;23.06;38.16;100990.88;4864137;29;45278;-63
2022/07/29 07:33:10;;;;;;;;;8.40;7.60;;;;;23.09;37.87;100993.94;4849198;29;45842;-64
2022/07/29 07:35:35;;;;;;;;;7.00;6.75;;;;;23.15;38.34;101003.09;4881145;29;45553;-62
2022/07/29 07:38:01;;;;;;;;;6.00;6.00;;;;;23.18;38.23;101001.69;4880648;29;45478;-62
2022/07/29 07:40:27;;;;;;;;;7.25;6.00;;;;;23.22;38.40;101002.78;4879743;29;45442;-62
2022/07/29 07:42:52;;;;;;;;;8.00;7.00;;;;;23.32;37.82;101008.31;4864244;29;45417;-63
2022/07/29 07:45:18;;;;;;;;;7.50;7.00;;;;;23.11;37.63;100969.25;4880994;29;45561;-64
2022/07/29 07:47:43;;;;;;;;;7.75;7.75;;;;;23.48;37.51;101011.84;4880916;29;45435;-62
2022/07/29 07:50:10;;;;;;;;;7.50;6.50;;;;;23.53;37.83;101006.19;4880640;29;45418;-62
2022/07/29 07:52:46;;;;;;;;;11.00;6.60;;;;;23.41;37.59;100984.19;4863953;29;45407;-63
2022/07/29 07:55:11;;;;;;;;;6.40;4.60;;;;;23.64;37.77;101011.72;4880822;29;45999;-63
2022/07/29 07:57:37;;;;;;;;;8.25;7.50;;;;;23.67;37.78;101011.97;4880586;29;46149;-62
2022/07/29 08:00:03;;;;;;;;;8.00;8.00;;;;;23.76;37.54;101014.13;4880437;29;45394;-63
2022/07/29 08:02:28;;;;;;;;;5.00;5.00;;;;;23.78;37.42;101009.91;4864104;29;45397;-62
2022/07/29 08:04:54;;;;;;;;;7.00;5.00;;;;;23.83;37.01;101012.66;4880674;29;45677;-61
2022/07/29 08:07:19;;;;;;;;;6.25;6.25;;;;;23.70;37.47;100990.94;4871934;29;46511;-62
2022/07/29 08:09:45;;;;;;;;;8.25;6.25;;;;;23.87;37.18;101015.69;4873416;29;45351;-63
2022/07/29 08:12:10;;;;;;;;;6.00;6.00;;;;;23.87;37.31;101012.06;4879732;29;45431;-61
2022/07/29 08:14:36;;;;;;;;;6.50;6.00;;;;;23.89;36.93;101007.81;4862796;29;45597;-62
2022/07/29 08:17:01;;;;;;;;;8.50;6.00;;;;;24.02;36.75;101017.47;4863623;29;46558;-63
2022/07/29 08:19:27;;;;;;;;;7.00;7.00;;;;;23.90;36.09;100984.25;4865517;29;45962;-62
2022/07/29 08:21:53;;;;;;;;;4.00;4.00;;;;;24.15;36.43;101013.19;4861818;29;45693;-60
2022/07/29 08:27:03;;;;;;;;;8.00;8.00;;;;;24.27;35.56;101021.16;4847619;29;45869;-61
2022/07/29 08:29:28;;;;;;;;;5.50;5.25;;;;;24.30;35.17;101017.78;4861481;29;45636;-60
2022/07/29 08:31:54;;;;;;;;;7.00;7.00;;;;;24.26;35.58;100991.47;4861634;29;45471;-61
2022/07/29 08:34:19;;;;;;;;;11.75;10.00;;;;;24.48;34.92;101018.97;4874062;29;45539;-61
2022/07/29 08:36:45;;;;;;;;;5.75;4.25;;;;;24.51;34.43;101014.72;4863602;29;46049;-60
2022/07/29 08:39:10;;;;;;;;;6.00;6.00;;;;;24.56;34.27;101017.47;4880308;29;45362;-60
2022/07/29 08:41:36;;;;;;;;;7.00;7.00;;;;;24.57;34.15;101018.28;4880152;29;45287;-60
2022/07/29 08:44:01;;;;;;;;;14.00;13.75;;;;;24.55;34.77;101012.97;4880185;29;45573;-61
2022/07/29 08:46:27;;;;;;;;;10.25;8.25;;;;;24.66;34.43;101018.44;4878785;29;46628;-61
2022/07/29 08:48:52;;;;;;;;;7.00;7.00;;;;;24.69;34.29;101017.84;4880342;29;45393;-59
2022/07/29 08:51:19;;;;;;;;;7.25;7.25;;;;;24.68;34.88;101007.75;4864593;29;45321;-60
2022/07/29 08:53:47;;;;;;;;;5.00;5.00;;;;;24.70;33.38;101020.34;4865908;29;45409;-60
2022/07/29 08:56:13;;;;;;;;;5.80;5.40;;;;;24.67;34.64;101006.09;4866553;29;46344;-60
2022/07/29 08:58:39;;;;;;;;;6.40;5.00;;;;;24.78;34.09;100994.41;4827793;29;45502;-60
2022/07/29 09:01:04;;;;;;;;;6.50;4.50;;;;;25.01;34.05;101007.88;4847382;29;45598;-60
2022/07/29 09:03:31;;;;;;;;;6.50;6.50;;;;;25.12;33.85;101017.81;4862085;29;45666;-59
2022/07/29 09:05:57;;;;;;;;;7.20;5.00;;;;;25.20;33.90;101007.03;4860225;29;45968;-60
2022/07/29 09:08:23;;;;;;;;;7.60;6.60;;;;;25.26;33.47;101000.19;4861750;29;45542;-60
2022/07/29 09:10:49;;;;;;;;;6.00;6.00;;;;;25.16;33.54;100988.00;4861115;29;45846;-61
2022/07/29 09:13:14;;;;;;;;;5.00;5.00;;;;;25.34;33.10;101013.53;4833615;29;45423;-61
2022/07/29 09:15:39;;;;;;;;;5.00;5.00;;;;;25.30;32.84;100998.44;4878367;29;46069;-61
2022/07/29 09:18:05;;;;;;;;;4.50;4.00;;;;;25.14;33.51;100978.22;4877678;29;45691;-61
2022/07/29 09:23:31;;;;;;;;;4.00;2.60;;;;;25.29;32.54;100983.56;4895045;29;45909;-62
2022/07/29 09:25:56;;;;;;;;;5.00;5.00;;;;;25.45;32.57;101000.16;4881815;29;45940;-60
2022/07/29 09:28:23;;;;;;;;;5.25;3.50;;;;;25.36;32.33;100979.53;4845766;29;45861;-61
2022/07/29 09:30:53;;;;;;;;;3.80;3.80;;;;;25.48;32.28;100995.88;4877772;29;45884;-60
2022/07/29 09:33:18;;;;;;;;;4.00;4.00;;;;;25.48;32.25;100999.53;4861768;29;45460;-61
2022/07/29 09:35:44;;;;;;;;;5.75;4.00;;;;;25.51;32.12;100996.09;4861427;29;46633;-60
2022/07/29 09:38:13;;;;;;;;;5.25;5.25;;;;;25.60;31.97;101006.69;4861497;29;45496;-61
2022/07/29 09:40:38;;;;;;;;;3.20;2.20;;;;;25.59;32.14;101008.66;4861441;29;45461;-60
2022/07/29 09:43:13;;;;;;;;;6.25;4.75;;;;;25.41;31.83;100983.06;4860667;29;45688;-61
2022/07/29 09:45:39;;;;;;;;;2.60;2.60;;;;;25.62;31.97;101013.69;4861326;29;46298;-59
2022/07/29 09:48:18;;;;;;;;;3.25;3.25;;;;;25.47;31.79;100980.19;4846049;29;45515;-63
2022/07/29 09:50:45;;;;;;;;;4.60;2.40;;;;;25.65;32.44;101007.44;4846211;29;45651;-62
2022/07/29 09:53:10;;;;;;;;;3.80;3.80;;;;;25.66;32.23;101008.28;4846224;29;45575;-60
2022/07/29 09:55:51;;;;;;;;;3.25;3.25;;;;;25.65;32.51;101010.25;4876666;29;46055;-61
2022/07/29 09:58:20;;;;;;;;;7.20;4.20;;;;;25.66;32.08;101005.47;4836645;29;45675;-61
2022/07/29 10:00:46;;;;;;;;;2.60;2.60;;;;;25.40;32.78;100966.53;4878349;29;45802;-61
2022/07/29 10:03:12;;;;;;;;;2.60;2.60;;;;;25.73;32.30;101007.84;4877076;29;45768;-61
2022/07/29 10:05:39;;;;;;;;;3.20;3.20;;;;;25.71;32.41;101005.34;4858387;29;45450;-61
2022/07/29 10:08:04;;;;;;;;;5.00;3.60;;;;;25.78;32.84;101002.16;4845642;29;45644;-62
2022/07/29 10:10:32;;;;;;;;;4.75;4.00;;;;;25.78;32.50;100994.53;4846161;29;45460;-62
2022/07/29 10:13:01;;;;;;;;;5.00;4.60;;;;;25.85;32.63;101011.00;4861521;29;45736;-62
2022/07/29 10:15:29;;;;;;;;;2.20;2.20;;;;;25.89;32.32;101016.84;4861401;29;47114;-62
2022/07/29 10:17:55;;;;;;;;;2.00;2.00;;;;;25.77;32.14;100995.69;4860145;29;46361;-61
2022/07/29 10:20:21;;;;;;;;;3.60;2.80;;;;;25.73;32.38;100982.56;4878224;29;45561;-65
2022/07/29 10:22:47;;;;;;;;;5.40;4.80;;;;;25.91;32.22;101006.09;4845941;29;45484;-61
2022/07/29 10:25:13;;;;;;;;;6.00;3.80;;;;;25.83;31.80;100982.38;4877924;29;46421;-62
2022/07/29 10:27:39;;;;;;;;;5.80;5.80;;;;;25.99;32.20;101002.59;4845446;29;45445;-61
2022/07/29 10:30:05;;;;;;;;;5.00;3.00;;;;;26.03;32.24;101009.25;4877079;29;45377;-62
2022/07/29 10:32:37;;;;;;;;;6.75;5.50;;;;;26.12;32.20;101006.56;4861113;29;45581;-60
2022/07/29 10:35:15;;;;;;;;;6.00;5.80;;;;;26.21;31.88;101006.66;4877761;29;46154;-59
2022/07/29 10:38:05;;;;;;;;;4.60;3.60;;;;;26.27;31.93;101004.59;4863969;29;45500;-56
2022/07/29 10:43:50;;;;;;;;;3.00;3.00;;;;;26.26;31.46;101006.59;4858496;29;45506;-62
2022/07/29 10:46:15;;;;;;;;;6.00;6.00;;;;;26.31;31.65;101014.91;4860959;29;45978;-61
2022/07/29 10:49:16;;;;;;;;;5.50;3.25;;;;;26.35;31.69;101015.97;4877721;29;45708;-62
2022/07/29 10:51:50;;;;;;;;;5.20;5.20;;;;;26.42;31.68;101011.91;4860669;29;45592;-62
2022/07/29 10:54:20;;;;;;;;;4.80;4.80;;;;;26.44;31.44;101018.88;4877144;29;45358;-62
2022/07/29 10:56:46;;;;;;;;;4.20;4.20;;;;;26.49;31.65;101015.13;4831737;29;45808;-63
2022/07/29 10:59:18;;;;;;;;;4.00;4.00;;;;;26.56;31.46;101017.53;4846682;29;45467;-61
2022/07/29 11:01:43;;;;;;;;;7.00;6.00;;;;;26.56;31.15;101011.91;4839723;29;45728;-65
2022/07/29 11:04:09;;;;;;;;;3.25;3.25;;;;;26.56;31.22;100992.19;4858880;29;45793;-64
2022/07/29 11:07:16;;;;;;;;;3.50;3.50;;;;;26.82;31.40;101008.50;4875365;29;46450;-64
2022/07/29 11:09:41;;;;;;;;;5.00;4.00;;;;;26.87;30.96;101012.03;4836525;29;45391;-65
2022/07/29 11:12:36;;;;;;;;;4.75;4.00;;;;;26.98;30.88;101011.81;4804904;29;45535;-63
2022/07/29 11:15:02;;;;;;;;;4.00;4.00;;;;;27.09;30.79;101001.16;4856903;29;45628;-60
2022/07/29 11:17:28;;;;;;;;;4.00;4.00;;;;;27.13;31.14;100999.34;4859289;29;46264;-61
2022/07/29 11:20:32;;;;;;;;;3.00;3.00;;;;;27.20;30.90;101005.38;4875521;29;45721;-62
2022/07/29 11:22:58;;;;;;;;;5.00;5.00;;;;;27.05;30.85;100964.34;4852332;29;45906;-62
2022/07/29 11:25:23;;;;;;;;;3.75;3.75;;;;;27.40;30.63;101006.00;4877059;29;45398;-63
2022/07/29 11:27:49;;;;;;;;;4.50;4.50;;;;;27.51;30.50;101003.75;4859862;29;46550;-63
2022/07/29 11:30:14;;;;;;;;;5.75;4.00;;;;;27.60;30.36;101016.78;4876873;29;45437;-64
2022/07/29 11:32:41;;;;;;;;;5.25;5.25;;;;;27.55;30.12;100985.91;4875495;29;45428;-62
2022/07/29 11:35:14;;;;;;;;;3.40;3.40;;;;;27.67;30.06;100999.44;4877146;29;45602;-63
2022/07/29 11:37:39;;;;;;;;;5.00;5.00;;;;;27.69;29.88;101011.22;4844531;29;48210;-62